François Lagadeuc

François Lagadeuc

Statistiques 2026

  • Courses courues : 312
  • Nb de victoires : 46
  • Nb de places : 86
  • Écart gagnant : 5
  • Réussite à la gagne : 15%
  • Réussite à la place : 28%
Musique : 0a 0a 3a 2a 8a 1a 8a 1a 5m Da 8a Da 4a 6a Da 2a 0a Da
DateRangCatégorieAlloc.Dist.HippodromeChevalRed. KmSpé.
28/07/22 1 Trot 13 000€ 2 700m Graignes Jaina d'Essarts 1'17"8 Attelé
29/07/22 1 Trot 22 000€ 2 775m Cabourg Huelva Duperouzel 1'13"7 Attelé
29/07/22 2 Trot 24 000€ 2 050m Cabourg Jamiroquai 1'14"9 Attelé
30/07/22 D Trot 61 000€ 2 875m Enghien Soisy Java du Pommeau Attelé
30/07/22 8 Trot 57 000€ 2 150m Enghien Soisy Disco d'Occagnes 1'13"6 Attelé lire

Très vite à la pointe du combat, n'a plafonné que pour finir.

30/07/22 6 Trot 65 000€ 2 875m Enghien Soisy Good Luck Quick 1'14"7 Monté lire

Longtemps en queue de peloton, n'a pu se rapprocher utilement pour finir.

30/07/22 5 Trot 51 000€ 2 875m Enghien Soisy Ivresse de Blary 1'14"0 Attelé lire

Très vite à la pointe du combat, a bien tenu sa partie jusqu'au bout.

30/07/22 1 Trot 44 000€ 2 150m Enghien Soisy Benvenuto Par 1'12"4 Attelé
30/07/22 1 Trot 120 000€ 1 609m Enghien Soisy Hohneck 1'09"6 Attelé lire

Tout de suite à la pointe du combat, a su se montrer le plus fort dans la phase finale.

30/07/22 D Trot 44 000€ 2 875m Enghien Soisy Forever de Prestes Attelé lire

A été sanctionné dans le premier tournant.

30/07/22 3 Trot 39 000€ 2 150m Enghien Soisy Ilismo 1'12"9 Attelé
31/07/22 0 Trot 15 000€ 2 875m Carentan Her Majesty Tege Monté
31/07/22 D Trot 15 000€ 2 875m Carentan Joli Clif Attelé
31/07/22 7 Trot 45 000€ 2 850m Carentan Furious Wind Attelé
31/07/22 D Trot 15 000€ 2 850m Carentan Good Expression Attelé
02/08/22 4 Trot 22 000€ 2 875m Meslay Du Maine Haurore 1'15"1 Attelé
02/08/22 4 Trot 29 000€ 2 900m Meslay Du Maine I Want You 1'13"3 Attelé
02/08/22 6 Trot 25 000€ 2 875m Meslay Du Maine Diable du Vivier 1'15"9 Monté
02/08/22 1 Trot 22 000€ 2 875m Meslay Du Maine Hurricane Wind 1'13"5 Attelé
02/08/22 3 Trot 28 000€ 2 875m Meslay Du Maine Ella de la Rive 1'13"6 Attelé
02/08/22 D Trot 17 000€ 2 875m Meslay Du Maine Je Viens du Sud Attelé
03/08/22 1 Trot 75 000€ 2 150m Enghien Soisy Farrell Seven 1'12"6 Attelé lire

Après avoir attendu au sein du peloton, est venu faire la différence dans la phase finale.

03/08/22 2 Trot 57 000€ 2 900m Enghien Soisy Fee de Ranchval 1'14"1 Attelé lire

Après avoir figuré au sein du peloton, a donné un bon coup de reins dans la ligne droite.

05/08/22 0 Trot 28 000€ 2 725m Cabourg Go Go Timoka Attelé lire

Longtemps en retrait, a progressé en épaisseur au dernier passage en face puis a marqué le pas.

05/08/22 3 Trot 36 000€ 2 750m Cabourg Esprit de Belfonds 1'15"2 Attelé lire

Très vite à la pointe du combat, a bien tenu sa partie pour finir.

05/08/22 4 Trot 45 000€ 2 750m Cabourg Handy Bourbon 1'13"1 Attelé
05/08/22 D Trot 21 000€ 2 750m Cabourg Iloviroiz Di Leone Monté
05/08/22 4 Trot 12 000€ 2 775m Cabourg Indien de Bry 1'17"2 Attelé
05/08/22 5 Trot 21 000€ 2 725m Cabourg Joujou d'Erable 1'17"2 Attelé
06/08/22 9 Trot 90 000€ 2 875m Enghien Soisy Celeste Breed 1'13"6 Attelé lire

N'a joué aucun rôle utile.

06/08/22 1 Trot 39 000€ 2 150m Enghien Soisy Icare des Forges 1'13"2 Attelé
06/08/22 2 Trot 44 000€ 2 150m Enghien Soisy Jamiroquai 1'14"2 Attelé
07/08/22 0 Trot 12 000€ 2 425m Sainte Marie Du Monts Jacoco Attelé
07/08/22 D Trot 12 000€ 2 425m Sainte Marie Du Monts Junon Twin Attelé
07/08/22 6 Trot 18 000€ 2 450m Sainte Marie Du Monts General du Palais Attelé
07/08/22 D Trot 12 000€ 2 425m Sainte Marie Du Monts Igor du Vivier Attelé
09/08/22 0 Trot 22 000€ 2 750m Cabourg Haulla du Caux Attelé
09/08/22 2 Trot 24 000€ 2 725m Cabourg Galeo d'Amaro 1'13"8 Attelé
09/08/22 D Trot 24 000€ 2 750m Cabourg Illegitime Prince Attelé
09/08/22 9 Trot 21 000€ 2 050m Cabourg Isis Jenilou 1'16"4 Attelé
09/08/22 8 Trot 19 000€ 2 750m Cabourg Just For You Piya 1'20"9 Monté
10/08/22 D Trot 13 000€ 2 150m Les Sables D'Olonne Karlina Bella Attelé
10/08/22 2 Trot 37 000€ 2 000m Les Sables D'Olonne Sahara Jaeburn 1'10"8 Attelé
10/08/22 D Trot 13 000€ 2 650m Les Sables D'Olonne Jasmine de Forgan Attelé
05/08/22 D Trot 2 200m Agon Coutainville Jordinio Attelé
05/08/22 4 Trot 2 200m Agon Coutainville Igor de Vrie Attelé
11/08/22 D Trot 14 000€ 2 700m Graignes Idole de Jarry Monté
11/08/22 D Trot 14 000€ 2 725m Graignes In Your Eyes Attelé
11/08/22 8 Trot 14 000€ 2 700m Graignes Jokero Bello 1'19"7 Attelé
11/08/22 3 Trot 16 000€ 2 700m Graignes Henry de Trouville 1'16"2 Attelé